Terminal Aerodrome Forecast
Issued by NWS

Home | Current Version | Previous Version | Text Only | Print | Product List | Glossary On
Versions: 1 2 3 4 5 6 7 8 9 10 11 12 13 14 15
000
FTUS45 KGJT 162339 RRA
TAFASE
TAF
KASE 162339Z 1700/1724 VRB06KT P6SM BKN090
     FM170300 19004KT P6SM SKC
     FM171700 30004KT P6SM SCT200=

USA.gov is the U.S. government's official web portal to all federal, state and local government web resources and services.